createdAt,value
2022-12-13T00:01:23.496Z,993.99
2022-12-13T00:07:06.492Z,993.98
2022-12-13T00:12:49.274Z,993.93
2022-12-13T00:18:33.222Z,993.93
2022-12-13T00:24:16.193Z,993.83
2022-12-13T00:29:59.327Z,993.76
2022-12-13T00:35:43.900Z,993.76
2022-12-13T00:41:27.228Z,993.7
2022-12-13T00:47:10.176Z,993.66
2022-12-13T00:52:53.014Z,993.6
2022-12-13T00:58:36.693Z,993.56
2022-12-13T01:04:19.373Z,993.56
2022-12-13T01:10:02.168Z,993.55
2022-12-13T01:15:46.088Z,993.55
2022-12-13T01:21:30.856Z,993.58
2022-12-13T01:27:13.616Z,993.51
2022-12-13T01:32:56.287Z,993.51
2022-12-13T01:38:39.337Z,993.4
2022-12-13T01:44:33.822Z,993.42
2022-12-13T01:50:19.034Z,993.42
2022-12-13T01:56:03.170Z,993.51
2022-12-13T02:01:47.035Z,993.44
2022-12-13T02:07:30.787Z,993.28
2022-12-13T02:13:13.637Z,993.34
2022-12-13T02:19:04.301Z,993.36
2022-12-13T02:24:57.344Z,993.33
2022-12-13T02:30:45.537Z,993.32
2022-12-13T02:36:36.097Z,993.33
2022-12-13T02:42:23.262Z,993.28
2022-12-13T02:48:08.909Z,993.24
2022-12-13T02:53:51.909Z,993.22
2022-12-13T02:59:37.079Z,993.17
2022-12-13T03:05:26.756Z,993.16
2022-12-13T03:11:11.349Z,993.21
2022-12-13T03:16:55.719Z,993.06
2022-12-13T03:22:38.802Z,993.27
2022-12-13T03:28:21.428Z,993.11
2022-12-13T03:34:04.401Z,993.13
2022-12-13T03:39:47.226Z,993.2
2022-12-13T03:45:30.081Z,993.12
2022-12-13T03:51:12.831Z,993.04
2022-12-13T03:56:55.589Z,993.04
2022-12-13T04:02:38.629Z,993.09
2022-12-13T04:08:23.123Z,993.1
2022-12-13T04:14:06.112Z,993.03
2022-12-13T04:19:49.217Z,992.94
2022-12-13T04:25:31.988Z,992.93
2022-12-13T04:31:14.879Z,992.85
2022-12-13T04:36:57.660Z,992.74
2022-12-13T04:42:40.796Z,992.76
2022-12-13T04:48:30.189Z,992.7
2022-12-13T04:54:24.457Z,992.65
2022-12-13T05:00:10.146Z,992.64
2022-12-13T05:05:52.764Z,992.6
2022-12-13T05:11:36.754Z,992.58
2022-12-13T05:17:27.858Z,992.57
2022-12-13T05:23:10.688Z,992.58
2022-12-13T05:28:53.604Z,992.55
2022-12-13T05:34:36.491Z,992.57
2022-12-13T05:40:19.204Z,992.63
2022-12-13T05:46:02.056Z,992.58
2022-12-13T05:51:44.917Z,992.5
2022-12-13T05:57:27.877Z,992.46
2022-12-13T06:03:11.029Z,992.5
2022-12-13T06:08:54.559Z,992.47
2022-12-13T06:14:37.461Z,992.42
2022-12-13T06:20:25.144Z,992.44
2022-12-13T06:26:08.372Z,992.38
2022-12-13T06:31:51.836Z,992.42
2022-12-13T06:37:34.506Z,992.45
2022-12-13T06:43:18.425Z,992.44
2022-12-13T06:49:01.192Z,992.33
2022-12-13T06:54:44.629Z,992.33
2022-12-13T07:00:34.135Z,992.38
2022-12-13T07:06:28.741Z,992.36
2022-12-13T07:12:11.486Z,992.35
2022-12-13T07:17:54.276Z,992.38
2022-12-13T07:23:37.604Z,992.44
2022-12-13T07:29:23.731Z,992.48
2022-12-13T07:35:06.716Z,992.54
2022-12-13T07:40:49.532Z,992.6
2022-12-13T07:46:35.021Z,992.64
2022-12-13T07:52:18.094Z,992.61
2022-12-13T07:58:04.895Z,992.64
2022-12-13T08:03:48.196Z,992.62
2022-12-13T08:09:30.912Z,992.65
2022-12-13T08:15:15.329Z,992.71
2022-12-13T08:21:02.603Z,992.71
2022-12-13T08:26:50.406Z,992.78
2022-12-13T08:32:33.469Z,992.94
2022-12-13T08:38:22.698Z,992.99
2022-12-13T08:44:06.086Z,993.01
2022-12-13T08:49:48.765Z,993
2022-12-13T08:55:33.191Z,993.07
2022-12-13T09:01:16.184Z,993.14
2022-12-13T09:07:02.927Z,993.13
2022-12-13T09:12:46.193Z,993.05
2022-12-13T09:18:36.311Z,993.08
2022-12-13T09:24:25.022Z,992.94
2022-12-13T09:30:09.216Z,993.02
2022-12-13T12:29:43.119Z,991.19
2022-12-13T12:35:31.809Z,991.06
2022-12-13T12:41:23.774Z,991.08
2022-12-13T12:53:21.565Z,991.03
2022-12-13T12:59:08.416Z,990.91
2022-12-13T13:04:54.447Z,990.82
2022-12-13T13:10:38.045Z,990.79
2022-12-13T13:16:34.360Z,990.69
2022-12-13T13:22:43.217Z,990.63
2022-12-13T13:28:38.242Z,990.63
2022-12-13T13:34:27.293Z,990.59
2022-12-13T13:40:30.201Z,990.59
2022-12-13T13:46:13.578Z,990.59
2022-12-13T13:52:27.900Z,990.57
2022-12-13T13:58:23.863Z,990.46
2022-12-13T14:04:16.897Z,990.42
2022-12-13T14:10:07.364Z,990.35
2022-12-13T14:16:20.200Z,990.33
2022-12-13T14:22:08.927Z,990.33
2022-12-13T14:27:55.074Z,990.25
2022-12-13T14:33:48.023Z,990.21
2022-12-13T14:39:31.749Z,990.17
2022-12-13T14:45:22.845Z,990.26
2022-12-13T14:51:05.883Z,990.22
2022-12-13T14:57:00.176Z,990.11
2022-12-13T15:02:50.253Z,990
2022-12-13T15:08:34.685Z,989.91
2022-12-13T15:14:22.955Z,989.87
2022-12-13T15:20:12.190Z,989.89
2022-12-13T15:25:57.566Z,989.92
2022-12-13T15:31:40.902Z,989.92
2022-12-13T15:37:31.374Z,989.82
2022-12-13T15:43:19.252Z,989.69
2022-12-13T15:49:03.123Z,989.74
2022-12-13T15:54:51.824Z,989.71
2022-12-13T16:00:35.274Z,989.65
2022-12-13T16:06:22.727Z,989.72
2022-12-13T16:12:06.832Z,989.63
2022-12-13T16:17:50.537Z,989.56
2022-12-13T16:23:33.612Z,989.5
2022-12-13T16:29:17.308Z,989.5
2022-12-13T16:35:00.446Z,989.46
2022-12-13T16:40:43.769Z,989.5
2022-12-13T16:47:15.861Z,989.41
2022-12-13T16:52:33.998Z,989.5
2022-12-13T16:58:17.967Z,989.47
2022-12-13T17:04:02.346Z,989.35
2022-12-13T17:09:56.979Z,989.4
2022-12-13T17:15:41.018Z,989.38
2022-12-13T17:21:24.329Z,989.28
2022-12-13T17:27:07.189Z,989.32
2022-12-13T17:32:50.498Z,989.35
2022-12-13T17:38:33.273Z,989.29
2022-12-13T17:44:16.272Z,989.21
2022-12-13T17:49:59.166Z,989.17
2022-12-13T17:55:41.950Z,989.23
2022-12-13T18:01:26.125Z,989.28
2022-12-13T18:07:09.162Z,989.2
2022-12-13T18:12:51.847Z,989.14
2022-12-13T18:18:34.905Z,989.08
2022-12-13T18:24:17.574Z,989.03
2022-12-13T18:30:02.401Z,988.98
2022-12-13T18:35:45.485Z,988.9
2022-12-13T18:41:28.821Z,988.76
2022-12-13T18:47:14.233Z,988.74
2022-12-13T18:53:03.018Z,988.73
2022-12-13T18:58:46.203Z,988.71
2022-12-13T19:04:29.094Z,988.67
2022-12-13T19:10:12.313Z,988.67
2022-12-13T19:15:55.791Z,988.6
2022-12-13T19:21:38.562Z,988.52
2022-12-13T19:27:21.293Z,988.37
2022-12-13T19:33:06.692Z,988.36
2022-12-13T19:38:49.547Z,988.32
2022-12-13T19:44:32.568Z,988.26
2022-12-13T19:50:15.889Z,988.13
2022-12-13T19:55:59.664Z,988.08
2022-12-13T20:01:45.640Z,987.93
2022-12-13T20:07:29.442Z,987.74
2022-12-13T20:13:12.265Z,987.62
2022-12-13T20:18:58.165Z,987.66
2022-12-13T20:24:40.873Z,987.65
2022-12-13T20:30:25.772Z,987.58
2022-12-13T20:36:23.964Z,987.56
2022-12-13T20:42:08.520Z,987.48
2022-12-13T20:47:51.497Z,987.37
2022-12-13T20:53:35.864Z,987.18
2022-12-13T20:59:18.573Z,987.12
2022-12-13T21:05:01.697Z,987.21
2022-12-13T21:10:44.545Z,987.22
2022-12-13T21:16:28.396Z,987.24
2022-12-13T21:22:11.501Z,987.23
2022-12-13T21:27:54.920Z,987.25
2022-12-13T21:33:38.297Z,987.09
2022-12-13T21:39:21.614Z,987.1
2022-12-13T21:45:04.636Z,986.98
2022-12-13T21:50:49.549Z,986.92
2022-12-13T21:56:33.601Z,986.83
2022-12-13T22:02:18.428Z,986.85
2022-12-13T22:08:02.034Z,986.75
2022-12-13T22:13:49.666Z,986.75
2022-12-13T22:19:33.029Z,986.66
2022-12-13T22:25:16.028Z,986.67
2022-12-13T22:30:59.364Z,986.7
2022-12-13T22:36:42.557Z,986.67
2022-12-13T22:42:25.457Z,986.62
2022-12-13T22:48:08.435Z,986.66
2022-12-13T22:53:51.495Z,986.67
2022-12-13T22:59:34.269Z,986.66
2022-12-13T23:05:18.352Z,986.74
2022-12-13T23:11:03.434Z,986.79
2022-12-13T23:16:46.374Z,986.78
2022-12-13T23:22:29.433Z,986.81
2022-12-13T23:28:14.427Z,986.85
2022-12-13T23:34:03.507Z,986.9
2022-12-13T23:39:46.336Z,986.76
2022-12-13T23:45:29.106Z,986.66
2022-12-13T23:51:12.931Z,986.57
2022-12-13T23:56:55.565Z,986.6
